Eastside, Alabama
Current Conditions -  °F | °C
As of 4:53 AM on Saturday 20 Dec 2014 (Local Time) from KTCL Reporting Station
Haze Haze  
Wind Chill:   Ceiling: 4300
Heat Index:   Visibility: 6mi
Dew Point:   Wind: 7mph
Humidity: 89%   Direction: 350°N
Pressure: 30.2"   Gusts: NA
Location:  33.2198°N, 87.4638°W
Report Text: KTCL 201053Z AUTO 35006KT 6SM BR BKN043 OVC050 05/03 A3020 RMK AO2 SLP227 T00500033
Loading
Personal Weather Stations






























Interactive Weather Map New forecast layout! Learn more

10-Day Weather Forecast

Advertisements
Track Severe Weather on mobile